Time;durP1;ratioP1;P1;durP2;ratioP2;P2;SDS_P1;SDS_P2;PMS_P1;PMS_P2;Temp;Humidity;BMP_temperature;BMP_pressure;BME280_temperature;BME280_humidity;BME280_pressure;Samples;Min_cycle;Max_cycle;Signal;HPM_P1;HPM_P2
2023/10/27 00:00:31;;;;;;;64.20;38.25;;;12.50;99.90;;;12.92;100.00;99062.81;4812220;29;20049;-64
2023/10/27 00:03:01;;;;;;;57.20;37.03;;;12.60;99.90;;;12.19;100.00;98937.78;4810004;29;20098;-64
2023/10/27 00:05:30;;;;;;;57.08;37.47;;;12.70;99.90;;;12.87;100.00;99068.34;4826047;29;20054;-64
2023/10/27 00:07:58;;;;;;;65.60;38.67;;;12.60;99.90;;;12.94;100.00;99059.19;4809876;29;20054;-65
2023/10/27 00:10:28;;;;;;;62.60;37.67;;;12.70;99.90;;;12.91;100.00;99061.97;4826183;29;20047;-65
2023/10/27 00:12:56;;;;;;;67.20;38.50;;;12.60;99.90;;;12.96;100.00;99064.41;4825182;29;20417;-64
2023/10/27 00:15:25;;;;;;;69.38;40.03;;;12.70;99.90;;;12.77;100.00;99061.69;4825775;29;20050;-65
2023/10/27 00:17:56;;;;;;;69.25;40.00;;;12.60;99.90;;;12.87;100.00;99060.38;4826198;29;20053;-64
2023/10/27 00:20:27;;;;;;;62.58;38.80;;;12.60;99.90;;;12.95;100.00;99063.56;4825745;29;20050;-64
2023/10/27 00:22:55;;;;;;;65.47;38.95;;;12.60;99.90;;;12.86;100.00;99056.00;4825828;29;20055;-64
2023/10/27 00:25:25;;;;;;;64.80;38.90;;;12.60;99.90;;;12.87;100.00;99052.44;4826067;29;20066;-64
2023/10/27 00:27:53;;;;;;;65.13;39.33;;;12.60;99.90;;;12.91;100.00;99051.34;4825641;29;20057;-64
2023/10/27 00:30:22;;;;;;;68.70;39.55;;;12.60;99.90;;;12.88;100.00;99056.78;4825951;29;20042;-64
2023/10/27 00:32:50;;;;;;;66.63;38.50;;;12.60;99.90;;;12.81;100.00;99046.50;4825394;29;20058;-64
2023/10/27 00:35:19;;;;;;;63.90;38.65;;;12.50;99.90;;;12.75;100.00;99047.63;4825820;29;20069;-64
2023/10/27 00:37:49;;;;;;;68.75;39.95;;;12.50;99.90;;;12.80;100.00;99040.34;4825741;29;20046;-64
2023/10/27 00:40:17;;;;;;;58.20;37.50;;;12.50;99.90;;;12.85;100.00;99041.03;4825665;29;20047;-64
2023/10/27 00:42:46;;;;;;;66.07;39.38;;;12.60;99.90;;;12.86;100.00;99039.22;4825488;29;20072;-64
2023/10/27 00:45:15;;;;;;;70.07;40.13;;;12.60;99.90;;;12.89;100.00;99037.28;4825408;29;20525;-64
2023/10/27 00:47:43;;;;;;;65.45;39.25;;;12.60;99.90;;;12.85;100.00;99034.84;4825600;29;20112;-64
2023/10/27 00:50:12;;;;;;;63.50;38.42;;;12.60;99.90;;;12.91;100.00;99034.59;4825512;29;20087;-65
2023/10/27 00:52:41;;;;;;;65.47;38.60;;;12.60;99.90;;;12.82;100.00;99033.19;4825498;29;20516;-64
2023/10/27 00:55:11;;;;;;;60.55;37.50;;;12.50;99.90;;;12.73;100.00;99033.56;4825213;29;20078;-64
2023/10/27 00:57:41;;;;;;;61.00;37.20;;;12.50;99.90;;;12.75;100.00;99026.41;4825445;29;20061;-64
2023/10/27 01:00:11;;;;;;;56.22;36.92;;;12.40;99.90;;;12.87;100.00;99025.03;4809090;29;20055;-64
2023/10/27 01:02:39;;;;;;;63.60;38.17;;;12.60;99.90;;;12.86;100.00;99025.94;4825712;29;20050;-65
2023/10/27 01:05:08;;;;;;;61.78;36.90;;;12.50;99.90;;;12.90;100.00;99023.09;4825331;29;20054;-64
2023/10/27 01:07:38;;;;;;;60.25;36.80;;;12.60;99.90;;;12.96;100.00;99008.69;4810917;29;20127;-64
2023/10/27 01:10:10;;;;;;;61.88;36.53;;;12.60;99.90;;;12.40;100.00;98910.38;4825372;29;20138;-64
2023/10/27 01:12:39;;;;;;;54.60;34.92;;;12.70;99.90;;;12.94;100.00;99021.16;4814106;29;20496;-65
2023/10/27 01:15:08;;;;;;;52.97;35.53;;;12.70;99.90;;;13.02;100.00;99016.38;4808680;29;20489;-64
2023/10/27 01:17:36;;;;;;;58.95;36.53;;;12.70;99.90;;;12.99;100.00;99014.72;4824913;29;20086;-64
2023/10/27 01:20:07;;;;;;;58.70;35.17;;;12.80;99.90;;;12.91;100.00;99016.00;4825130;29;20054;-64
2023/10/27 01:22:41;;;;;;;55.33;35.00;;;12.60;99.90;;;12.80;100.00;99011.16;4808791;29;20058;-64
2023/10/27 01:25:10;;;;;;;60.40;37.33;;;12.60;99.90;;;12.73;100.00;99008.84;4824186;29;20066;-64
2023/10/27 01:27:38;;;;;;;57.13;34.13;;;12.50;99.90;;;12.76;100.00;99011.34;4824752;29;20054;-65
2023/10/27 01:30:09;;;;;;;54.03;34.90;;;12.50;99.90;;;12.89;100.00;99012.56;4824690;29;20102;-64
2023/10/27 01:32:40;;;;;;;51.55;33.95;;;12.60;99.90;;;12.97;100.00;99003.31;4824799;29;20050;-64
2023/10/27 01:35:09;;;;;;;51.60;32.38;;;12.70;99.90;;;12.91;100.00;99002.75;4824854;29;20050;-64
2023/10/27 01:37:38;;;;;;;50.85;31.45;;;12.60;99.90;;;12.84;100.00;99006.56;4824911;29;20053;-64
2023/10/27 01:40:09;;;;;;;46.75;31.00;;;12.60;99.90;;;12.69;100.00;99005.44;4824581;29;20491;-64
2023/10/27 01:42:38;;;;;;;49.22;30.90;;;12.40;99.90;;;12.70;100.00;99007.16;4824890;29;20085;-64
2023/10/27 01:45:08;;;;;;;43.03;28.70;;;12.40;99.90;;;12.72;100.00;99005.31;4808269;29;20153;-64
2023/10/27 01:47:36;;;;;;;41.55;28.38;;;12.40;99.90;;;12.49;100.00;99006.28;4825169;29;20154;-64
2023/10/27 01:50:06;;;;;;;46.25;29.67;;;12.30;99.90;;;12.49;100.00;98998.34;4824735;29;20070;-63
2023/10/27 01:52:34;;;;;;;43.60;29.20;;;12.30;99.90;;;12.52;100.00;99000.84;4808274;29;20110;-64
2023/10/27 01:55:03;;;;;;;41.85;29.27;;;12.30;99.90;;;12.48;100.00;98998.41;4824227;29;20050;-64
2023/10/27 01:57:33;;;;;;;40.70;27.20;;;12.20;99.90;;;12.55;100.00;98992.78;4821795;29;20564;-64
2023/10/27 02:00:01;;;;;;;45.20;28.43;;;12.20;99.90;;;12.36;100.00;98996.25;4824562;29;20046;-64
2023/10/27 02:02:39;;;;;;;48.38;29.80;;;12.20;99.90;;;11.70;100.00;98902.72;4824333;29;20291;-64
2023/10/27 02:05:09;;;;;;;44.92;29.15;;;12.00;99.90;;;12.32;100.00;98989.38;4794030;29;20141;-64
2023/10/27 02:07:37;;;;;;;48.17;28.15;;;12.10;99.90;;;12.36;100.00;98991.84;4824223;29;20058;-64
2023/10/27 02:10:07;;;;;;;51.15;30.02;;;12.10;99.90;;;12.24;100.00;98994.13;4813545;29;20062;-64
2023/10/27 02:12:37;;;;;;;54.53;31.83;;;12.00;99.90;;;12.19;100.00;98989.03;4807864;29;20050;-64
2023/10/27 02:15:08;;;;;;;48.53;29.50;;;12.00;99.90;;;12.24;100.00;98984.38;4807798;29;20054;-64
2023/10/27 02:17:38;;;;;;;51.10;29.33;;;12.00;99.90;;;12.30;100.00;98985.91;4824427;29;20050;-64
2023/10/27 02:20:08;;;;;;;;;;;12.00;99.90;;;12.01;100.00;98950.03;4808233;29;20063;-64
2023/10/27 02:22:41;;;;;;;54.33;30.23;;;12.00;99.90;;;12.16;100.00;98989.13;4807839;29;19960;-64
2023/10/27 02:25:09;;;;;;;53.60;31.48;;;11.90;99.90;;;12.24;100.00;98979.09;4824312;29;20111;-64
2023/10/27 02:27:40;;;;;;;50.28;29.65;;;12.00;99.90;;;12.33;100.00;98991.09;4807685;29;20485;-64
2023/10/27 02:30:10;;;;;;;55.78;30.42;;;12.00;99.90;;;12.46;100.00;98989.66;4824226;29;20055;-64
2023/10/27 02:32:38;;;;;;;53.80;30.98;;;12.10;99.90;;;12.40;100.00;98987.25;4824131;29;20449;-64
2023/10/27 02:35:07;;;;;;;54.67;30.08;;;12.20;99.90;;;12.39;100.00;98988.16;4807220;29;20058;-64
2023/10/27 02:37:36;;;;;;;53.67;30.60;;;12.10;99.90;;;12.47;100.00;98991.38;4824073;29;20114;-64
2023/10/27 02:40:06;;;;;;;50.38;30.35;;;12.20;99.90;;;12.60;100.00;98987.28;4824075;29;20077;-64
2023/10/27 02:42:40;;;;;;;50.85;29.50;;;12.30;99.90;;;12.71;100.00;98987.69;4824096;29;20050;-64
2023/10/27 02:45:09;;;;;;;48.13;28.73;;;12.40;99.90;;;12.90;100.00;98987.72;4824117;29;20053;-64
2023/10/27 02:47:39;;;;;;;45.38;27.92;;;12.50;99.90;;;13.13;100.00;98992.91;4824006;29;20154;-64
2023/10/27 02:50:08;;;;;;;45.70;28.87;;;12.80;99.90;;;13.24;100.00;98988.00;4824568;29;20568;-63
2023/10/27 02:52:37;;;;;;;42.78;26.77;;;12.90;99.90;;;13.22;100.00;98980.09;4810484;29;20306;-63
2023/10/27 02:55:06;;;;;;;41.53;26.25;;;12.90;99.90;;;13.29;100.00;98988.66;4820735;29;20111;-64
2023/10/27 02:57:35;;;;;;;41.57;26.23;;;13.00;99.90;;;13.35;100.00;98991.91;4823839;29;20501;-64
2023/10/27 03:00:07;;;;;;;39.65;24.08;;;13.10;99.90;;;13.42;100.00;98990.69;4812118;29;20659;-65
2023/10/27 03:02:36;;;;;;;32.97;22.25;;;13.10;99.90;;;13.60;100.00;98991.63;4808155;29;20061;-63
2023/10/27 03:05:05;;;;;;;35.97;21.98;;;13.30;99.90;;;13.55;100.00;98988.28;4823753;29;20584;-65
2023/10/27 03:07:33;;;;;;;31.17;21.92;;;13.30;99.90;;;13.62;100.00;98986.22;4807218;29;20060;-64
2023/10/27 03:10:02;;;;;;;31.05;21.58;;;13.30;99.90;;;13.54;100.00;98982.16;4823661;29;20051;-63
2023/10/27 03:12:32;;;;;;;27.27;19.80;;;13.30;99.90;;;13.43;100.00;98981.75;4823789;29;20485;-63
2023/10/27 03:15:01;;;;;;;28.63;20.27;;;13.20;99.90;;;13.53;100.00;98983.06;4823360;29;20209;-63
2023/10/27 03:17:30;;;;;;;29.77;20.20;;;13.20;99.90;;;13.49;100.00;98976.16;4823347;29;20089;-63
2023/10/27 03:20:00;;;;;;;27.53;20.03;;;13.30;99.90;;;13.42;100.00;98976.53;4823924;29;20446;-64
2023/10/27 03:22:28;;;;;;;28.77;19.73;;;13.20;99.90;;;13.23;100.00;98979.16;4823615;29;20654;-63
2023/10/27 03:24:58;;;;;;;26.70;19.40;;;13.00;99.90;;;13.02;100.00;98973.94;4821314;29;20504;-63
2023/10/27 03:27:26;;;;;;;30.02;19.80;;;12.80;99.90;;;12.90;100.00;98970.03;4807226;29;20118;-63
2023/10/27 03:29:54;;;;;;;28.85;19.35;;;12.60;99.90;;;12.80;100.00;98974.00;4823529;29;20130;-63
2023/10/27 03:32:23;;;;;;;27.70;19.67;;;12.50;99.90;;;12.72;100.00;98968.16;4823811;29;20133;-63
2023/10/27 03:34:53;;;;;;;24.70;18.05;;;12.50;99.90;;;12.77;100.00;98968.84;4823424;29;20249;-63
2023/10/27 03:37:21;;;;;;;29.92;19.30;;;12.40;99.90;;;12.65;100.00;98978.22;4807071;29;20065;-63
2023/10/27 03:39:51;;;;;;;28.73;19.27;;;12.40;99.90;;;12.65;100.00;98975.56;4823203;29;20050;-63
2023/10/27 03:42:19;;;;;;;25.80;19.63;;;12.40;99.90;;;12.62;100.00;98972.16;4807084;29;20457;-63
2023/10/27 03:44:47;;;;;;;24.70;18.60;;;12.30;99.90;;;12.70;100.00;98970.91;4809157;29;20127;-63
2023/10/27 03:47:16;;;;;;;26.15;18.92;;;12.40;99.90;;;12.61;100.00;98967.78;4824199;29;20632;-63
2023/10/27 03:49:44;;;;;;;26.63;18.90;;;12.30;99.90;;;12.61;100.00;98973.09;4826251;29;20106;-64
2023/10/27 03:52:14;;;;;;;25.52;18.55;;;12.30;99.90;;;12.64;100.00;98963.19;4810182;29;20057;-63
2023/10/27 03:54:42;;;;;;;23.20;17.93;;;12.30;99.90;;;12.68;100.00;98967.44;4810093;29;20413;-63
2023/10/27 03:57:11;;;;;;;23.13;17.58;;;12.40;99.90;;;12.78;100.00;98967.03;4826240;29;20467;-63
2023/10/27 03:59:39;;;;;;;23.88;18.50;;;12.50;99.90;;;12.78;100.00;98972.34;4826070;29;20058;-63
2023/10/27 04:02:07;;;;;;;24.60;18.20;;;12.50;99.90;;;12.79;100.00;98964.34;4826099;29;20054;-63
2023/10/27 04:04:36;;;;;;;21.50;17.25;;;12.50;99.90;;;12.82;100.00;98965.97;4826173;29;20125;-63
2023/10/27 04:07:04;;;;;;;20.13;17.48;;;12.50;99.90;;;12.77;100.00;98968.84;4826083;29;20050;-63
2023/10/27 04:09:34;;;;;;;22.73;18.48;;;12.50;99.90;;;12.74;100.00;98961.00;4825893;29;20046;-63
2023/10/27 04:12:03;;;;;;;22.07;17.13;;;12.50;99.90;;;12.87;100.00;98964.00;4826467;29;20168;-63
2023/10/27 04:14:31;;;;;;;23.88;18.50;;;12.60;99.90;;;12.75;100.00;98944.19;4826368;29;20129;-63
2023/10/27 04:17:00;;;;;;;21.20;17.85;;;12.50;99.90;;;12.94;100.00;98968.09;4825695;29;20054;-63
2023/10/27 04:19:28;;;;;;;25.05;19.48;;;12.70;99.90;;;12.86;100.00;98967.56;4826064;29;20085;-63
2023/10/27 04:21:57;;;;;;;22.20;18.08;;;12.60;99.90;;;12.86;100.00;98973.75;4825748;29;20058;-63
2023/10/27 04:24:25;;;;;;;23.77;18.42;;;12.60;99.90;;;12.99;100.00;98969.59;4825533;29;20054;-63
2023/10/27 04:26:55;;;;;;;21.27;16.77;;;12.70;99.90;;;12.91;100.00;98966.44;4825630;29;20082;-63
2023/10/27 04:29:23;;;;;;;23.70;18.10;;;12.70;99.90;;;12.99;100.00;98968.78;4825640;29;20051;-63
2023/10/27 04:31:51;;;;;;;21.90;18.13;;;12.70;99.90;;;13.01;100.00;98967.75;4825851;29;20050;-63
2023/10/27 04:34:20;;;;;;;23.05;17.45;;;12.80;99.90;;;13.08;100.00;98968.38;4825793;29;20107;-63
2023/10/27 04:36:49;;;;;;;22.27;18.08;;;12.90;99.90;;;13.08;100.00;98969.25;4809352;29;20479;-63
2023/10/27 04:39:17;;;;;;;19.75;16.90;;;12.90;99.90;;;13.06;100.00;98964.94;4809420;29;20493;-63
2023/10/27 04:41:45;;;;;;;21.77;17.85;;;12.90;99.90;;;13.18;100.00;98973.19;4825449;29;20413;-63
2023/10/27 04:44:17;;;;;;;21.67;18.08;;;13.00;99.90;;;13.15;100.00;98975.13;4809370;29;20104;-63
2023/10/27 04:46:45;;;;;;;21.38;17.80;;;13.00;99.90;;;13.12;100.00;98976.16;4825699;29;20054;-67
2023/10/27 04:49:13;;;;;;;19.25;17.15;;;13.00;99.90;;;13.09;100.00;98980.72;4809248;29;20069;-63
2023/10/27 04:51:42;;;;;;;20.98;17.17;;;12.90;99.90;;;13.03;100.00;98975.63;4825269;29;20039;-63
2023/10/27 04:54:10;;;;;;;19.33;16.92;;;12.80;99.90;;;12.91;100.00;98976.22;4825233;29;20046;-63
2023/10/27 04:56:38;;;;;;;21.52;17.15;;;12.70;99.90;;;13.01;100.00;98958.91;4825165;29;20051;-64
2023/10/27 04:59:07;;;;;;;23.17;18.52;;;12.80;99.90;;;13.08;100.00;98973.69;4824890;29;20201;-63
2023/10/27 05:01:36;;;;;;;21.42;17.98;;;12.80;99.90;;;13.06;100.00;98972.91;4825163;29;20081;-63
2023/10/27 05:04:06;;;;;;;20.40;16.57;;;12.80;99.90;;;13.06;100.00;98978.22;4825319;29;20133;-63
2023/10/27 05:06:34;;;;;;;22.45;17.38;;;12.80;99.90;;;13.18;100.00;98978.50;4825034;29;20299;-63
2023/10/27 05:09:03;;;;;;;18.73;16.20;;;12.90;99.90;;;13.20;100.00;98979.28;4825030;29;20050;-63
2023/10/27 05:11:35;;;;;;;21.38;17.80;;;13.00;99.90;;;13.24;100.00;98978.22;4825176;29;20058;-63
2023/10/27 05:14:03;;;;;;;20.83;17.35;;;13.00;99.90;;;13.16;100.00;98972.41;4824957;29;20056;-63
2023/10/27 05:16:32;;;;;;;22.55;17.23;;;12.90;99.90;;;13.24;100.00;98966.78;4824809;29;20137;-64
2023/10/27 05:19:04;;;;;;;19.67;16.30;;;13.00;99.90;;;12.61;100.00;98862.56;4824912;29;20133;-63
2023/10/27 05:21:33;;;;;;;18.67;16.45;;;13.10;99.90;;;13.26;100.00;98981.69;4824889;29;20111;-63
2023/10/27 05:24:02;;;;;;;19.17;16.63;;;13.00;99.90;;;13.28;100.00;98968.31;4825069;29;20049;-63
2023/10/27 05:26:31;;;;;;;19.45;17.13;;;13.00;99.90;;;13.23;100.00;98973.88;4822115;29;20434;-63
2023/10/27 05:28:59;;;;;;;21.17;17.10;;;13.00;99.90;;;13.24;100.00;98980.03;4824687;29;20072;-63
2023/10/27 05:31:28;;;;;;;22.60;16.63;;;13.00;99.90;;;13.10;100.00;98985.97;4824969;29;20050;-64
2023/10/27 05:33:56;;;;;;;17.80;15.68;;;12.90;99.90;;;13.02;100.00;98972.16;4824627;29;20054;-63
2023/10/27 05:36:26;;;;;;;20.92;16.48;;;12.80;99.90;;;12.94;100.00;98971.63;4808427;29;20560;-63
2023/10/27 05:38:55;;;;;;;18.67;16.20;;;12.70;99.90;;;12.91;100.00;98971.75;4825317;29;20058;-63
2023/10/27 05:41:23;;;;;;;20.40;16.65;;;12.60;99.90;;;12.72;100.00;98944.31;4824902;29;20181;-63
2023/10/27 05:43:54;;;;;;;20.73;16.55;;;12.60;99.90;;;12.96;100.00;98974.19;4825057;29;20133;-62
2023/10/27 05:46:22;;;;;;;20.92;16.35;;;12.70;99.90;;;13.08;100.00;98973.69;4808488;29;20054;-62
2023/10/27 05:48:51;;;;;;;19.83;15.40;;;12.70;99.90;;;12.39;100.00;98845.88;4824788;29;20046;-62
2023/10/27 05:51:19;;;;;;;20.52;16.25;;;12.90;99.90;;;13.19;100.00;98969.63;4810196;29;20086;-63
2023/10/27 05:53:49;;;;;;;18.08;14.80;;;12.90;99.90;;;12.69;100.00;98916.13;4824882;29;20556;-62
2023/10/27 05:56:18;;;;;;;19.27;16.17;;;12.80;99.90;;;12.98;100.00;98970.56;4824350;29;20078;-62
2023/10/27 05:58:47;;;;;;;18.40;14.63;;;12.70;99.90;;;12.91;100.00;98970.91;4824618;29;20061;-62
2023/10/27 06:01:15;;;;;;;16.30;14.57;;;12.70;99.90;;;12.78;100.00;98969.69;4824289;29;20134;-62
2023/10/27 06:03:44;;;;;;;20.13;15.30;;;12.50;99.90;;;12.92;100.00;98968.16;4808105;29;20120;-62
2023/10/27 06:06:12;;;;;;;18.23;16.00;;;12.60;99.90;;;12.80;100.00;98965.19;4824680;29;20081;-62
2023/10/27 06:08:44;;;;;;;17.30;15.43;;;12.60;99.90;;;12.68;100.00;98971.88;4824529;29;20072;-62
2023/10/27 06:11:14;;;;;;;18.38;15.90;;;12.40;99.90;;;12.65;100.00;98964.94;4823543;29;20054;-62
2023/10/27 06:13:42;;;;;;;20.35;16.38;;;12.40;99.90;;;12.63;100.00;98966.81;4824447;29;20080;-62
2023/10/27 06:16:11;;;;;;;20.15;16.40;;;12.40;99.90;;;12.60;100.00;98966.06;4823882;29;20126;-62
2023/10/27 06:18:39;;;;;;;19.75;16.70;;;12.30;99.90;;;12.70;100.00;98972.69;4824050;29;20134;-62
2023/10/27 06:21:08;;;;;;;24.27;17.52;;;12.40;99.90;;;12.61;100.00;98968.66;4823987;29;20565;-63
2023/10/27 06:23:36;;;;;;;25.63;17.63;;;12.40;99.90;;;12.46;100.00;98973.75;4823991;29;20481;-62
2023/10/27 06:26:05;;;;;;;22.10;17.33;;;12.20;99.90;;;12.42;100.00;98972.16;4820066;29;20103;-62
2023/10/27 06:28:35;;;;;;;20.42;17.20;;;12.20;99.90;;;12.41;100.00;98965.09;4823886;29;20078;-62
2023/10/27 06:31:04;;;;;;;22.90;17.30;;;12.20;99.90;;;12.43;100.00;98971.22;4824500;29;20126;-63
2023/10/27 06:33:33;;;;;;;23.08;18.45;;;12.10;99.90;;;12.44;100.00;98965.88;4809949;29;20133;-63
2023/10/27 06:36:02;;;;;;;21.48;17.45;;;12.20;99.90;;;12.52;100.00;98968.19;4823826;29;20051;-62
2023/10/27 06:38:30;;;;;;;23.33;17.58;;;12.20;99.90;;;12.41;100.00;98947.41;4823858;29;20068;-63
2023/10/27 06:40:59;;;;;;;21.23;17.05;;;12.20;99.90;;;12.67;100.00;98976.34;4823745;29;20962;-61
2023/10/27 06:43:28;;;;;;;24.52;17.70;;;12.40;99.90;;;12.61;100.00;98978.38;4823757;29;20133;-62
2023/10/27 06:45:57;;;;;;;22.80;18.70;;;12.30;99.90;;;12.68;100.00;98979.84;4823718;29;20058;-62
2023/10/27 06:48:26;;;;;;;24.40;18.60;;;12.40;99.90;;;12.84;100.00;98975.59;4823693;29;20061;-63
2023/10/27 06:50:54;;;;;;;24.73;18.52;;;12.50;99.90;;;12.90;100.00;98991.25;4807489;29;20054;-63
2023/10/27 06:53:23;;;;;;;22.63;17.42;;;12.60;99.90;;;12.99;100.00;98980.22;4823926;29;20050;-63
2023/10/27 06:55:51;;;;;;;22.30;16.90;;;12.70;99.90;;;12.91;100.00;98990.31;4824084;29;20054;-64
2023/10/27 06:58:19;;;;;;;23.98;17.20;;;12.70;99.90;;;12.84;100.00;98990.66;4823662;29;20054;-62
2023/10/27 07:00:48;;;;;;;18.48;15.68;;;12.60;99.90;;;12.85;100.00;99003.88;4823954;29;20507;-61
2023/10/27 07:03:18;;;;;;;22.50;16.33;;;12.50;99.90;;;12.81;100.00;98991.66;4823514;29;20054;-62
2023/10/27 07:05:59;;;;;;;20.48;16.00;;;12.60;99.90;;;12.84;100.00;98994.19;4823517;29;20101;-61
2023/10/27 07:08:28;;;;;;;22.77;15.85;;;12.50;99.90;;;12.87;100.00;98995.84;4807209;29;20129;-62
2023/10/27 07:10:58;;;;;;;22.50;18.23;;;12.60;99.90;;;12.91;100.00;98998.28;4823427;29;20062;-64
2023/10/27 07:13:28;;;;;;;21.60;17.05;;;12.60;99.90;;;13.00;100.00;98997.88;4823926;29;20050;-65
2023/10/27 07:15:57;;;;;;;22.23;16.95;;;12.70;99.90;;;13.03;100.00;99007.47;4823416;29;20054;-63
2023/10/27 07:18:27;;;;;;;25.33;17.42;;;12.70;99.90;;;12.91;100.00;99005.41;4823324;29;20103;-64
2023/10/27 07:20:56;;;;;;;21.13;16.47;;;12.70;99.90;;;13.00;100.00;99008.50;4823890;29;20085;-62
2023/10/27 07:23:25;;;;;;;21.15;16.50;;;12.70;99.90;;;12.92;100.00;99015.94;4824379;29;20046;-61
2023/10/27 07:25:53;;;;;;;22.30;17.65;;;12.70;99.90;;;12.82;100.00;99011.06;4827097;29;20119;-64
2023/10/27 07:28:22;;;;;;;21.85;16.83;;;12.60;99.90;;;12.93;100.00;99006.19;4826622;29;20042;-65
2023/10/27 07:30:50;;;;;;;25.63;17.70;;;12.60;99.90;;;12.90;100.00;99007.19;4826687;29;20053;-63
2023/10/27 07:33:19;;;;;;;22.88;16.98;;;12.60;99.90;;;12.98;100.00;99010.38;4826591;29;20050;-63
2023/10/27 07:35:49;;;;;;;24.67;17.50;;;12.70;99.90;;;13.03;100.00;99011.03;4826524;29;20111;-63
2023/10/27 07:38:17;;;;;;;25.13;17.70;;;12.70;99.90;;;13.11;100.00;99014.22;4826965;29;20082;-63
2023/10/27 07:40:46;;;;;;;20.75;16.25;;;12.80;99.90;;;13.18;100.00;99020.97;4826379;29;20432;-63
2023/10/27 07:43:14;;;;;;;21.33;16.60;;;12.90;99.90;;;13.05;100.00;99021.59;4826677;29;20058;-63
2023/10/27 07:45:46;;;;;;;19.70;16.45;;;12.80;99.90;;;12.84;100.00;99018.06;4826598;29;20050;-63
2023/10/27 07:48:14;;;;;;;20.17;16.80;;;12.60;99.90;;;12.72;100.00;99023.88;4826373;29;20058;-63
2023/10/27 07:50:43;;;;;;;19.58;15.68;;;12.50;99.90;;;12.73;100.00;99022.97;4826780;29;20512;-63
2023/10/27 07:53:12;;;;;;;21.33;16.73;;;12.40;99.90;;;12.87;100.00;99023.25;4826262;29;20050;-63
2023/10/27 07:55:43;;;;;;;20.58;15.90;;;12.50;99.90;;;12.73;100.00;99015.00;4826515;29;20074;-64
2023/10/27 07:58:12;;;;;;;19.55;14.93;;;12.50;99.90;;;12.63;100.00;99029.59;4826395;29;20051;-63
2023/10/27 08:00:41;;;;;;;18.38;14.85;;;12.40;99.90;;;12.62;100.00;99027.84;4826437;29;20054;-63
2023/10/27 08:03:09;;;;;;;19.77;14.98;;;12.40;99.90;;;12.66;100.00;99021.47;4826369;29;20053;-63
2023/10/27 08:05:38;;;;;;;17.33;14.10;;;12.40;99.90;;;12.56;100.00;99028.13;4826049;29;20056;-64
2023/10/27 08:08:06;;;;;;;19.77;14.50;;;12.30;99.90;;;12.51;100.00;99036.25;4825987;29;20054;-63
2023/10/27 08:10:38;;;;;;;18.02;14.15;;;12.20;99.90;;;12.44;100.00;99028.63;4826290;29;20103;-63
2023/10/27 08:13:07;;;;;;;18.38;14.30;;;12.10;99.90;;;12.42;100.00;99035.78;4825889;29;20058;-63
2023/10/27 08:15:36;;;;;;;16.45;13.60;;;12.10;99.90;;;12.51;100.00;99035.38;4825766;29;20083;-63
2023/10/27 08:18:06;;;;;;;17.80;13.23;;;12.20;99.90;;;12.44;100.00;99033.94;4809800;29;20061;-66
2023/10/27 08:20:34;;;;;;;18.92;13.82;;;12.20;99.90;;;12.47;100.00;99033.78;4825780;29;20050;-63
2023/10/27 08:23:02;;;;;;;17.42;13.75;;;12.20;99.90;;;12.41;100.00;99034.91;4825773;29;20046;-63
2023/10/27 08:25:31;;;;;;;16.75;13.45;;;12.10;99.90;;;12.49;100.00;99037.25;4825960;29;20066;-63
2023/10/27 08:28:00;;;;;;;16.60;13.48;;;12.20;99.90;;;12.51;100.00;99041.56;4825672;29;20065;-64
2023/10/27 08:30:30;;;;;;;15.57;12.90;;;12.20;99.90;;;12.48;100.00;99030.22;4811847;29;20539;-64
2023/10/27 08:32:59;;;;;;;15.63;13.10;;;12.20;99.90;;;12.54;100.00;99041.41;4825085;29;20054;-64
2023/10/27 08:35:27;;;;;;;18.35;13.95;;;12.30;99.90;;;12.49;100.00;99037.25;4826064;29;20062;-64
2023/10/27 08:37:56;;;;;;;17.35;13.40;;;12.20;99.90;;;12.47;100.00;99028.50;4825753;29;20055;-64
2023/10/27 08:40:24;;;;;;;16.83;13.48;;;12.20;99.90;;;12.51;100.00;99038.03;4825436;29;20049;-64
2023/10/27 08:42:53;;;;;;;18.20;13.68;;;12.20;99.90;;;12.44;100.00;99037.47;4825480;29;20067;-64
2023/10/27 08:45:24;;;;;;;18.35;12.88;;;12.20;99.90;;;12.01;100.00;98957.09;4809318;29;20050;-64
2023/10/27 08:47:54;;;;;;;;;;;12.20;99.90;;;12.53;100.00;99034.41;4826520;29;20061;-64
2023/10/27 08:50:23;;;;;;;16.83;12.95;;;12.30;99.90;;;12.53;100.00;99033.53;4825427;29;19929;-64
2023/10/27 08:52:51;;;;;;;17.48;14.57;;;12.20;99.90;;;12.61;100.00;99036.75;4809169;29;20081;-64
2023/10/27 08:55:20;;;;;;;20.70;14.85;;;12.30;99.90;;;12.59;100.00;99028.84;4825231;29;20051;-65
2023/10/27 08:57:48;;;;;;;22.00;14.75;;;12.30;99.90;;;12.58;100.00;99023.63;4825216;29;20107;-65
2023/10/27 09:00:17;;;;;;;16.02;13.95;;;12.30;99.90;;;12.65;100.00;99028.59;4825210;29;20082;-65
2023/10/27 09:02:47;;;;;;;18.92;15.05;;;12.30;99.90;;;12.71;100.00;99030.13;4808996;29;20114;-65
2023/10/27 09:05:15;;;;;;;16.33;13.80;;;12.40;99.90;;;12.80;100.00;99031.50;4825232;29;20137;-65
2023/10/27 09:07:44;;;;;;;20.48;14.88;;;12.50;99.90;;;12.72;100.00;99037.13;4825125;29;20042;-65
2023/10/27 09:10:13;;;;;;;17.83;13.95;;;12.40;99.90;;;12.66;100.00;99035.63;4824716;29;20093;-65
2023/10/27 09:12:41;;;;;;;18.67;14.10;;;12.40;99.90;;;12.72;100.00;99038.97;4824451;29;20058;-65
2023/10/27 09:15:12;;;;;;;17.13;14.02;;;12.40;99.90;;;12.82;100.00;99053.53;4824413;29;20042;-65
2023/10/27 09:17:57;;;;;;;15.70;14.00;;;12.50;99.90;;;12.65;100.00;99025.94;4813390;29;20138;-64
2023/10/27 09:20:27;;;;;;;17.58;13.43;;;12.50;99.90;;;12.63;100.00;99045.50;4811788;29;20431;-65
2023/10/27 09:23:00;;;;;;;17.35;13.43;;;12.40;99.90;;;12.59;100.00;99049.19;4825184;29;20061;-65
2023/10/27 09:25:29;;;;;;;16.55;13.63;;;12.40;99.90;;;12.61;100.00;99047.34;4822890;29;20054;-65
2023/10/27 09:27:59;;;;;;;14.05;12.13;;;12.30;99.90;;;12.56;100.00;99041.38;4824838;29;20058;-65
2023/10/27 09:30:29;;;;;;;14.30;11.13;;;12.30;99.90;;;12.48;100.00;99044.34;4824956;29;20061;-65
2023/10/27 09:33:13;;;;;;;13.52;11.02;;;12.20;99.90;;;12.40;100.00;99040.28;4824663;29;20113;-65
2023/10/27 09:35:42;;;;;;;13.27;10.60;;;12.10;99.90;;;12.33;100.00;99042.31;4810994;29;20061;-64
2023/10/27 09:38:12;;;;;;;11.80;10.00;;;12.10;99.90;;;12.30;100.00;99041.59;4824309;29;20043;-65
2023/10/27 09:40:42;;;;;;;13.63;9.13;;;12.00;99.90;;;12.35;100.00;99050.22;4824752;29;20054;-65
2023/10/27 09:43:19;;;;;;;10.68;9.05;;;12.10;99.90;;;12.42;100.00;99049.91;4824698;29;20107;-65
2023/10/27 09:45:53;;;;;;;11.43;8.80;;;12.10;99.90;;;12.25;100.00;99030.31;4823746;29;20061;-65
2023/10/27 09:48:27;;;;;;;12.30;8.02;;;12.10;99.90;;;12.47;100.00;99052.34;4823962;29;20446;-65
2023/10/27 09:51:01;;;;;;;10.10;7.60;;;12.20;99.90;;;12.56;100.00;99049.34;4824208;29;20047;-65
2023/10/27 09:53:30;;;;;;;9.43;7.85;;;12.30;99.90;;;12.44;100.00;99044.53;4807620;29;20086;-65
2023/10/27 09:56:00;;;;;;;9.38;7.95;;;12.20;99.90;;;12.40;100.00;99062.38;4807445;29;20527;-65
2023/10/27 09:58:32;;;;;;;11.02;9.00;;;12.20;99.90;;;12.49;100.00;99037.25;4807524;29;20111;-65
2023/10/27 10:01:02;;;;;;;10.80;9.40;;;12.30;99.90;;;12.67;100.00;99052.41;4824220;29;20050;-64
2023/10/27 10:03:33;;;;;;;13.18;9.82;;;12.40;99.90;;;12.73;100.00;99051.28;4823824;29;20525;-65
2023/10/27 10:06:11;;;;;;;12.50;9.77;;;12.50;99.90;;;12.56;100.00;99050.19;4823711;29;20092;-65
2023/10/27 10:08:41;;;;;;;14.45;10.45;;;12.40;99.90;;;12.46;100.00;99050.66;4824062;29;20050;-65